createdAt,value
2019-02-27T00:01:35.182Z,6.90
2019-02-27T00:04:04.582Z,6.80
2019-02-27T00:06:34.147Z,6.80
2019-02-27T00:09:05.245Z,6.90
2019-02-27T00:11:34.552Z,6.90
2019-02-27T00:14:03.864Z,6.70
2019-02-27T00:16:33.222Z,6.70
2019-02-27T00:19:05.395Z,6.70
2019-02-27T00:21:34.704Z,6.60
2019-02-27T00:24:04.060Z,6.60
2019-02-27T00:26:33.369Z,6.60
2019-02-27T00:29:02.972Z,6.60
2019-02-27T00:31:32.368Z,6.60
2019-02-27T00:34:01.679Z,6.50
2019-02-27T00:36:30.994Z,6.50
2019-02-27T00:39:00.421Z,6.40
2019-02-27T00:41:29.985Z,6.40
2019-02-27T00:44:01.335Z,6.40
2019-02-27T00:46:30.617Z,6.30
2019-02-27T00:48:59.931Z,6.20
2019-02-27T00:51:29.455Z,6.20
2019-02-27T00:53:59.019Z,6.20
2019-02-27T00:56:28.658Z,6.20
2019-02-27T00:59:00.131Z,6.30
2019-02-27T01:01:29.084Z,6.20
2019-02-27T01:04:00.992Z,6.10
2019-02-27T01:06:29.417Z,6.20
2019-02-27T01:08:59.129Z,6.10
2019-02-27T01:11:28.739Z,6.10
2019-02-27T01:13:58.349Z,6.00
2019-02-27T01:16:27.768Z,6.20
2019-02-27T01:18:57.099Z,6.20
2019-02-27T01:21:26.758Z,6.10
2019-02-27T01:23:56.113Z,6.00
2019-02-27T01:26:25.430Z,5.90
2019-02-27T01:28:55.915Z,5.90
2019-02-27T01:31:25.300Z,5.90
2019-02-27T01:33:54.610Z,5.90
2019-02-27T01:36:24.663Z,5.90
2019-02-27T01:38:54.765Z,5.90
2019-02-27T01:41:24.566Z,5.90
2019-02-27T01:43:54.524Z,6.00
2019-02-27T01:46:27.362Z,5.80
2019-02-27T01:48:55.212Z,5.80
2019-02-27T01:51:25.777Z,5.60
2019-02-27T01:53:55.686Z,5.60
2019-02-27T01:56:28.941Z,5.60
2019-02-27T01:58:56.292Z,5.60
2019-02-27T02:01:29.949Z,5.60
2019-02-27T02:03:56.947Z,5.50
2019-02-27T02:06:26.560Z,5.50
2019-02-27T02:09:13.150Z,5.50
2019-02-27T02:11:42.460Z,5.50
2019-02-27T02:14:42.058Z,5.40
2019-02-27T02:17:30.634Z,5.30
2019-02-27T02:20:43.463Z,5.40
2019-02-27T02:23:39.781Z,5.40
2019-02-27T02:26:32.145Z,5.40
2019-02-27T02:29:20.406Z,5.20
2019-02-27T02:32:04.096Z,5.20
2019-02-27T02:34:41.009Z,5.30
2019-02-27T02:37:21.236Z,5.30
2019-02-27T02:40:04.047Z,5.30
2019-02-27T02:42:54.488Z,5.20
2019-02-27T02:45:33.819Z,5.30
2019-02-27T02:48:35.158Z,5.20
2019-02-27T02:51:21.236Z,5.20
2019-02-27T02:54:24.149Z,5.10
2019-02-27T02:57:09.823Z,5.10
2019-02-27T02:59:49.855Z,5.20
2019-02-27T03:02:51.000Z,5.00
2019-02-27T03:05:42.473Z,4.90
2019-02-27T03:08:30.451Z,4.80
2019-02-27T03:11:34.506Z,4.80
2019-02-27T03:14:52.915Z,4.80
2019-02-27T03:17:38.344Z,4.70
2019-02-27T03:20:30.432Z,4.80
2019-02-27T03:23:33.337Z,4.80
2019-02-27T03:26:26.434Z,5.00
2019-02-27T03:29:38.578Z,4.90
2019-02-27T03:32:41.142Z,4.90
2019-02-27T03:35:48.252Z,4.80
2019-02-27T03:39:00.241Z,4.90
2019-02-27T03:42:05.789Z,4.90
2019-02-27T03:44:42.475Z,4.80
2019-02-27T03:47:55.763Z,5.00
2019-02-27T03:50:53.540Z,4.90
2019-02-27T03:53:33.226Z,4.90
2019-02-27T03:56:13.388Z,4.80
2019-02-27T03:59:05.606Z,4.80
2019-02-27T04:02:05.730Z,4.90
2019-02-27T04:04:57.186Z,4.90
2019-02-27T04:07:48.768Z,4.80
2019-02-27T04:10:18.122Z,4.90
2019-02-27T04:12:51.318Z,4.90
2019-02-27T04:15:18.945Z,4.90
2019-02-27T04:17:51.870Z,4.80
2019-02-27T04:20:18.241Z,4.70
2019-02-27T04:22:47.547Z,4.70
2019-02-27T04:25:16.918Z,4.80
2019-02-27T04:27:46.247Z,4.60
2019-02-27T04:30:16.789Z,4.70
2019-02-27T04:32:48.745Z,4.60
2019-02-27T04:35:17.450Z,4.60
2019-02-27T04:37:46.767Z,4.60
2019-02-27T04:40:16.127Z,4.60
2019-02-27T04:42:45.494Z,4.60
2019-02-27T04:45:34.600Z,4.50
2019-02-27T04:48:03.910Z,4.50
2019-02-27T04:50:33.224Z,4.50
2019-02-27T04:53:02.883Z,4.60
2019-02-27T04:55:32.204Z,4.70
2019-02-27T04:58:01.800Z,4.70
2019-02-27T05:00:31.427Z,4.80
2019-02-27T05:03:01.011Z,5.00
2019-02-27T05:05:30.567Z,5.00
2019-02-27T05:08:00.227Z,5.00
2019-02-27T05:10:29.589Z,5.00
2019-02-27T05:12:59.244Z,5.00
2019-02-27T05:15:28.853Z,4.90
2019-02-27T05:17:58.840Z,4.90
2019-02-27T05:20:28.168Z,4.90
2019-02-27T05:23:00.113Z,4.80
2019-02-27T05:25:28.811Z,4.80
2019-02-27T05:28:00.994Z,4.90
2019-02-27T05:30:29.516Z,5.00
2019-02-27T05:33:02.264Z,5.00
2019-02-27T05:35:30.581Z,4.90
2019-02-27T05:37:59.941Z,4.90
2019-02-27T05:40:29.249Z,4.80
2019-02-27T05:42:58.827Z,4.80
2019-02-27T05:45:31.225Z,4.70
2019-02-27T05:47:59.488Z,4.60
2019-02-27T05:50:28.803Z,4.60
2019-02-27T05:52:58.164Z,4.50
2019-02-27T05:55:27.784Z,4.50
2019-02-27T05:57:57.093Z,4.30
2019-02-27T06:00:26.517Z,4.30
2019-02-27T06:02:56.830Z,4.40
2019-02-27T06:05:26.441Z,4.30
2019-02-27T06:07:55.785Z,4.20
2019-02-27T06:10:25.102Z,4.30
2019-02-27T06:12:54.406Z,4.30
2019-02-27T06:15:26.090Z,4.40
2019-02-27T06:17:55.005Z,4.40
2019-02-27T06:20:24.319Z,4.30
2019-02-27T06:22:53.675Z,4.20
2019-02-27T06:25:23.965Z,4.30
2019-02-27T06:27:53.815Z,4.30
2019-02-27T06:30:23.168Z,4.40
2019-02-27T06:32:52.551Z,4.50
2019-02-27T06:35:22.106Z,4.30
2019-02-27T06:37:54.170Z,4.30
2019-02-27T06:40:23.479Z,4.30
2019-02-27T06:42:53.853Z,4.30
2019-02-27T06:45:23.862Z,4.30
2019-02-27T06:47:53.430Z,4.30
2019-02-27T06:50:25.255Z,4.40
2019-02-27T06:52:53.835Z,4.40
2019-02-27T06:55:28.097Z,4.40
2019-02-27T06:57:57.009Z,4.50
2019-02-27T07:00:27.091Z,4.50
2019-02-27T07:02:56.412Z,4.50
2019-02-27T07:05:25.718Z,4.50
2019-02-27T07:07:55.412Z,4.50
2019-02-27T07:10:25.013Z,4.60
2019-02-27T07:12:55.339Z,4.50
2019-02-27T07:15:25.260Z,4.70
2019-02-27T07:17:54.598Z,4.80
2019-02-27T07:20:25.145Z,4.90
2019-02-27T07:22:54.897Z,5.10
2019-02-27T07:25:25.014Z,5.10
2019-02-27T07:27:54.316Z,5.30
2019-02-27T07:30:24.010Z,5.40
2019-02-27T07:32:53.679Z,5.50
2019-02-27T07:35:25.484Z,5.60
2019-02-27T07:37:54.094Z,5.70
2019-02-27T07:40:23.407Z,5.80
2019-02-27T07:42:52.722Z,5.80
2019-02-27T07:45:23.449Z,5.80
2019-02-27T07:47:52.713Z,5.80
2019-02-27T07:50:22.608Z,6.00
2019-02-27T07:52:52.323Z,6.10
2019-02-27T07:55:23.614Z,6.20
2019-02-27T07:57:53.070Z,6.10
2019-02-27T08:00:23.579Z,6.20
2019-02-27T08:02:53.216Z,6.30
2019-02-27T08:05:25.901Z,6.40
2019-02-27T08:07:54.249Z,6.50
2019-02-27T08:10:25.245Z,6.70
2019-02-27T08:12:56.440Z,6.80
2019-02-27T08:15:26.179Z,6.90
2019-02-27T08:17:57.999Z,7.00
2019-02-27T08:20:27.138Z,7.00
2019-02-27T08:22:57.897Z,7.20
2019-02-27T08:25:27.445Z,7.30
2019-02-27T08:27:57.180Z,7.40
2019-02-27T08:30:28.999Z,7.40
2019-02-27T08:32:58.320Z,7.50
2019-02-27T08:35:27.881Z,7.60
2019-02-27T08:38:02.513Z,7.70
2019-02-27T08:40:28.342Z,7.70
2019-02-27T08:42:57.713Z,7.90
2019-02-27T08:45:27.775Z,7.90
2019-02-27T08:47:57.264Z,8.00
2019-02-27T08:50:29.294Z,8.10
2019-02-27T08:52:58.074Z,8.20
2019-02-27T08:55:27.669Z,8.30
2019-02-27T08:57:57.223Z,8.40
2019-02-27T09:00:34.627Z,8.50
2019-02-27T09:03:03.968Z,8.50
2019-02-27T09:05:33.262Z,8.60
2019-02-27T09:08:02.985Z,8.70
2019-02-27T09:10:32.288Z,8.80
2019-02-27T09:13:05.254Z,8.80
2019-02-27T09:15:33.156Z,8.90
2019-02-27T09:18:02.841Z,9.00
2019-02-27T09:20:32.140Z,9.10
2019-02-27T09:23:01.546Z,9.10
2019-02-27T09:25:31.160Z,9.30
2019-02-27T09:28:00.465Z,9.40
2019-02-27T09:30:30.220Z,9.40
2019-02-27T09:32:59.785Z,9.60
2019-02-27T09:35:32.529Z,9.60
2019-02-27T09:38:00.822Z,9.70
2019-02-27T09:40:30.763Z,9.70
2019-02-27T09:43:00.837Z,9.80
2019-02-27T09:45:35.644Z,9.80
2019-02-27T09:48:06.106Z,9.90
2019-02-27T09:50:48.357Z,10.00
2019-02-27T09:53:18.060Z,10.10
2019-02-27T09:55:47.752Z,10.30
2019-02-27T09:58:17.065Z,10.40
2019-02-27T10:00:50.707Z,10.40
2019-02-27T10:03:21.164Z,10.50
2019-02-27T10:05:51.041Z,10.60
2019-02-27T10:08:20.433Z,10.70
2019-02-27T10:10:50.315Z,10.80
2019-02-27T10:13:19.700Z,10.90
2019-02-27T10:15:49.003Z,11.00
2019-02-27T10:18:20.113Z,11.00
2019-02-27T10:20:52.449Z,11.00
2019-02-27T10:23:24.137Z,11.10
2019-02-27T10:25:53.768Z,11.20
2019-02-27T10:28:23.390Z,11.20
2019-02-27T10:30:52.768Z,11.40
2019-02-27T10:33:22.183Z,11.60
2019-02-27T10:35:51.646Z,11.70
2019-02-27T10:38:21.120Z,11.80
2019-02-27T10:40:50.806Z,12.00
2019-02-27T10:43:21.164Z,12.00
2019-02-27T10:45:50.609Z,12.10
2019-02-27T10:48:19.978Z,12.10
2019-02-27T10:50:49.291Z,12.30
2019-02-27T10:53:18.613Z,12.40
2019-02-27T10:55:49.313Z,12.50
2019-02-27T10:58:19.145Z,12.60
2019-02-27T11:00:50.438Z,12.80
2019-02-27T11:03:19.945Z,13.00
2019-02-27T11:05:52.369Z,13.10
2019-02-27T11:08:20.354Z,13.20
2019-02-27T11:10:49.895Z,13.40
2019-02-27T11:13:19.277Z,13.50
2019-02-27T11:15:49.125Z,13.60
2019-02-27T11:18:18.493Z,13.70
2019-02-27T11:20:47.810Z,13.70
2019-02-27T11:23:17.198Z,13.80
2019-02-27T11:25:46.568Z,13.90
2019-02-27T11:28:16.122Z,14.00
2019-02-27T11:30:46.406Z,14.10
2019-02-27T11:33:25.055Z,14.20
2019-02-27T11:35:47.055Z,14.30
2019-02-27T11:38:16.444Z,14.40
2019-02-27T11:40:45.819Z,14.60
2019-02-27T11:43:17.160Z,14.70
2019-02-27T11:45:46.449Z,14.80
2019-02-27T11:48:15.795Z,14.90
2019-02-27T11:50:45.475Z,15.00
2019-02-27T11:53:14.790Z,15.00
2019-02-27T11:55:47.043Z,15.20
2019-02-27T11:58:15.451Z,15.30
2019-02-27T12:00:44.833Z,15.40
2019-02-27T12:03:14.143Z,15.50
2019-02-27T12:05:43.515Z,15.50
2019-02-27T12:08:12.835Z,15.70
2019-02-27T12:10:42.185Z,15.90
2019-02-27T12:13:11.519Z,16.00
2019-02-27T12:15:43.381Z,16.30
2019-02-27T12:18:12.143Z,16.50
2019-02-27T12:20:41.597Z,16.40
2019-02-27T12:23:11.159Z,16.70
2019-02-27T12:25:40.618Z,16.90
2019-02-27T12:28:10.334Z,17.00
2019-02-27T12:30:39.969Z,17.00
2019-02-27T12:33:09.448Z,17.10
2019-02-27T12:35:39.086Z,17.20
2019-02-27T12:38:08.607Z,17.20
2019-02-27T12:40:37.990Z,17.10
2019-02-27T12:43:07.379Z,17.10
2019-02-27T12:45:36.691Z,17.20
2019-02-27T12:48:06.220Z,17.40
2019-02-27T12:50:35.994Z,17.30
2019-02-27T12:53:06.464Z,17.50
2019-02-27T12:55:36.464Z,17.60
2019-02-27T12:58:06.080Z,17.70
2019-02-27T13:00:36.900Z,17.90
2019-02-27T13:03:09.355Z,18.10
2019-02-27T13:05:37.745Z,18.30
2019-02-27T13:08:07.393Z,18.40
2019-02-27T13:10:36.771Z,18.50
2019-02-27T13:13:06.183Z,18.60
2019-02-27T13:15:35.497Z,18.70
2019-02-27T13:18:04.920Z,18.70
2019-02-27T13:20:37.562Z,19.00
2019-02-27T13:23:07.210Z,19.10
2019-02-27T13:25:36.886Z,19.20
2019-02-27T13:28:06.329Z,19.20
2019-02-27T13:30:35.648Z,19.60
2019-02-27T13:33:05.180Z,19.70
2019-02-27T13:35:34.834Z,19.90
2019-02-27T13:38:04.216Z,20.00
2019-02-27T13:40:35.831Z,20.30
2019-02-27T13:43:04.884Z,20.50
2019-02-27T13:45:34.272Z,20.60
2019-02-27T13:48:05.920Z,20.70
2019-02-27T13:50:34.750Z,20.70
2019-02-27T13:53:04.134Z,20.90
2019-02-27T13:55:33.501Z,21.00
2019-02-27T13:58:03.804Z,21.00
2019-02-27T14:00:38.284Z,21.10
2019-02-27T14:03:12.837Z,21.20
2019-02-27T14:05:41.757Z,21.20
2019-02-27T14:08:11.069Z,21.30
2019-02-27T14:10:40.750Z,21.50
2019-02-27T14:13:10.065Z,21.10
2019-02-27T14:15:39.615Z,21.30
2019-02-27T14:18:09.260Z,21.20
2019-02-27T14:20:38.584Z,21.50
2019-02-27T14:23:08.366Z,21.60
2019-02-27T14:25:37.803Z,21.60
2019-02-27T14:28:07.116Z,21.80
2019-02-27T14:30:50.762Z,21.90
2019-02-27T14:33:20.626Z,22.00
2019-02-27T14:35:50.047Z,21.70
2019-02-27T14:38:21.821Z,22.00
2019-02-27T14:40:50.481Z,22.10
2019-02-27T14:43:19.804Z,22.20
2019-02-27T14:45:50.728Z,21.90
2019-02-27T14:48:21.419Z,22.00
2019-02-27T14:50:51.711Z,21.90
2019-02-27T14:53:21.075Z,22.00
2019-02-27T14:55:50.688Z,22.10
2019-02-27T14:58:24.107Z,22.20
2019-02-27T15:00:51.162Z,22.00
2019-02-27T15:03:20.467Z,21.90
2019-02-27T15:05:49.802Z,21.60
2019-02-27T15:08:19.177Z,21.40
2019-02-27T15:10:48.486Z,20.90
2019-02-27T15:13:17.807Z,20.60
2019-02-27T15:15:47.484Z,20.30
2019-02-27T15:18:16.826Z,20.20
2019-02-27T15:20:46.140Z,20.20
2019-02-27T15:23:15.500Z,20.20
2019-02-27T15:25:44.811Z,20.30
2019-02-27T15:28:14.478Z,20.50
2019-02-27T15:30:46.394Z,20.80
2019-02-27T15:33:16.435Z,21.30
2019-02-27T15:35:45.966Z,21.80
2019-02-27T15:38:15.396Z,22.20
2019-02-27T15:40:45.298Z,22.30
2019-02-27T15:43:17.293Z,22.50
2019-02-27T15:45:47.979Z,22.50
2019-02-27T15:48:16.888Z,22.50
2019-02-27T15:50:46.304Z,22.70
2019-02-27T15:53:15.898Z,22.70
2019-02-27T15:55:45.675Z,22.70
2019-02-27T15:58:15.031Z,22.80
2019-02-27T16:00:44.347Z,23.00
2019-02-27T16:03:15.855Z,23.00
2019-02-27T16:05:45.838Z,22.90
2019-02-27T16:08:15.412Z,22.80
2019-02-27T16:10:54.349Z,23.00
2019-02-27T16:13:16.158Z,23.20
2019-02-27T16:15:48.497Z,23.20
2019-02-27T16:18:19.443Z,22.90
2019-02-27T16:20:49.979Z,23.10
2019-02-27T16:23:20.044Z,22.90
2019-02-27T16:25:52.846Z,22.10
2019-02-27T16:28:20.560Z,21.70
2019-02-27T16:30:49.887Z,21.20
2019-02-27T16:33:23.551Z,20.80
2019-02-27T16:35:50.305Z,21.30
2019-02-27T16:38:19.934Z,21.40
2019-02-27T16:40:52.454Z,21.20
2019-02-27T16:43:20.389Z,20.70
2019-02-27T16:45:49.740Z,20.20
2019-02-27T16:48:19.443Z,19.80
2019-02-27T16:50:48.789Z,19.50
2019-02-27T16:53:19.495Z,19.20
2019-02-27T16:55:48.947Z,19.00
2019-02-27T16:58:18.277Z,18.70
2019-02-27T17:00:47.611Z,18.30
2019-02-27T17:03:16.928Z,18.00
2019-02-27T17:05:46.232Z,17.70
2019-02-27T17:08:15.582Z,17.40
2019-02-27T17:10:44.985Z,17.30
2019-02-27T17:13:15.385Z,17.00
2019-02-27T17:15:44.943Z,16.90
2019-02-27T17:18:14.420Z,16.70
2019-02-27T17:20:46.518Z,16.50
2019-02-27T17:23:14.820Z,16.40
2019-02-27T17:25:44.196Z,16.20
2019-02-27T17:28:13.512Z,16.00
2019-02-27T17:30:43.281Z,16.00
2019-02-27T17:33:12.660Z,15.70
2019-02-27T17:35:42.265Z,15.50
2019-02-27T17:38:13.702Z,15.50
2019-02-27T17:40:42.718Z,15.40
2019-02-27T17:43:12.023Z,15.40
2019-02-27T17:45:41.328Z,15.30
2019-02-27T17:48:12.445Z,15.10
2019-02-27T17:50:42.037Z,15.00
2019-02-27T17:53:11.354Z,14.90
2019-02-27T17:55:41.597Z,14.70
2019-02-27T17:58:11.918Z,14.70
2019-02-27T18:00:43.190Z,14.60
2019-02-27T18:03:12.826Z,14.50
2019-02-27T18:05:42.451Z,14.40
2019-02-27T18:08:15.975Z,14.30
2019-02-27T18:10:42.844Z,14.20
2019-02-27T18:13:12.162Z,14.10
2019-02-27T18:15:41.485Z,14.00
2019-02-27T18:18:10.836Z,14.00
2019-02-27T18:20:40.190Z,13.90
2019-02-27T18:23:09.820Z,13.90
2019-02-27T18:25:42.109Z,13.80
2019-02-27T18:28:11.047Z,13.80
2019-02-27T18:30:42.629Z,13.70
2019-02-27T18:33:14.300Z,13.50
2019-02-27T18:35:43.466Z,13.40
2019-02-27T18:38:13.147Z,13.40
2019-02-27T18:40:42.891Z,13.30
2019-02-27T18:43:13.152Z,13.30
2019-02-27T18:45:45.380Z,13.20
2019-02-27T18:48:15.210Z,13.20
2019-02-27T18:50:44.730Z,13.20
2019-02-27T18:53:14.102Z,13.10
2019-02-27T18:55:44.096Z,13.00
2019-02-27T18:58:13.599Z,12.80
2019-02-27T19:00:42.976Z,12.90
2019-02-27T19:03:13.289Z,12.80
2019-02-27T19:05:42.656Z,12.70
2019-02-27T19:08:11.969Z,12.60
2019-02-27T19:10:42.604Z,12.50
2019-02-27T19:13:12.381Z,12.70
2019-02-27T19:15:45.274Z,12.70
2019-02-27T19:18:13.646Z,12.60
2019-02-27T19:20:48.272Z,12.60
2019-02-27T19:23:18.506Z,12.40
2019-02-27T19:25:48.128Z,12.40
2019-02-27T19:28:17.446Z,12.30
2019-02-27T19:30:46.866Z,12.40
2019-02-27T19:33:16.443Z,12.30
2019-02-27T19:35:45.842Z,12.30
2019-02-27T19:38:15.507Z,12.40
2019-02-27T19:40:44.955Z,12.40
2019-02-27T19:43:14.348Z,12.30
2019-02-27T19:45:43.712Z,12.20
2019-02-27T19:48:13.431Z,12.40
2019-02-27T19:50:46.249Z,12.50
2019-02-27T19:53:14.004Z,12.70
2019-02-27T19:55:43.590Z,12.70
2019-02-27T19:58:16.974Z,12.80
2019-02-27T20:00:48.504Z,12.90
2019-02-27T20:03:15.556Z,12.90
2019-02-27T20:05:45.188Z,12.90
2019-02-27T20:08:14.849Z,12.90
2019-02-27T20:10:44.547Z,12.70
2019-02-27T20:13:13.932Z,12.60
2019-02-27T20:15:45.675Z,12.60
2019-02-27T20:18:15.208Z,12.50
2019-02-27T20:20:45.233Z,12.60
2019-02-27T20:23:15.133Z,12.70
2019-02-27T20:25:44.606Z,12.70
2019-02-27T20:28:14.635Z,12.70
2019-02-27T20:30:44.125Z,12.90
2019-02-27T20:33:13.886Z,12.90
2019-02-27T20:35:43.325Z,12.80
2019-02-27T20:38:15.990Z,12.60
2019-02-27T20:40:43.994Z,12.60
2019-02-27T20:43:13.360Z,12.60
2019-02-27T20:45:43.533Z,12.70
2019-02-27T20:48:13.456Z,12.70
2019-02-27T20:50:49.859Z,12.70
2019-02-27T20:53:21.025Z,12.70
2019-02-27T20:55:50.223Z,12.70
2019-02-27T20:58:22.024Z,12.50
2019-02-27T21:00:50.730Z,12.50
2019-02-27T21:03:20.059Z,12.40
2019-02-27T21:05:52.731Z,12.40
2019-02-27T21:08:22.434Z,12.30
2019-02-27T21:10:55.249Z,12.30
2019-02-27T21:13:23.350Z,12.40
2019-02-27T21:15:52.661Z,12.30
2019-02-27T21:18:21.980Z,12.30
2019-02-27T21:20:51.360Z,12.20
2019-02-27T21:23:20.945Z,12.30
2019-02-27T21:25:50.270Z,12.30
2019-02-27T21:28:21.249Z,12.30
2019-02-27T21:30:52.354Z,12.30
2019-02-27T21:33:22.086Z,12.30
2019-02-27T21:35:51.675Z,12.30
2019-02-27T21:38:20.997Z,12.30
2019-02-27T21:40:50.313Z,12.20
2019-02-27T21:43:25.383Z,12.20
2019-02-27T21:45:50.786Z,12.20
2019-02-27T21:48:20.107Z,12.10
2019-02-27T21:50:49.719Z,12.00
2019-02-27T21:53:19.043Z,11.90
2019-02-27T21:55:48.733Z,11.90
2019-02-27T21:58:20.680Z,11.80
2019-02-27T22:00:49.159Z,11.80
2019-02-27T22:03:18.497Z,11.60
2019-02-27T22:05:52.665Z,11.50
2019-02-27T22:08:20.032Z,11.50
2019-02-27T22:10:53.068Z,11.50
2019-02-27T22:13:28.878Z,11.40
2019-02-27T22:15:55.805Z,11.50
2019-02-27T22:18:22.798Z,11.40
2019-02-27T22:20:52.429Z,11.10
2019-02-27T22:23:21.748Z,11.20
2019-02-27T22:25:51.070Z,11.20
2019-02-27T22:28:20.805Z,11.20
2019-02-27T22:30:50.791Z,11.10
2019-02-27T22:33:22.982Z,11.10
2019-02-27T22:35:51.216Z,11.10
2019-02-27T22:38:25.889Z,11.10
2019-02-27T22:40:51.862Z,11.00
2019-02-27T22:43:22.114Z,10.90
2019-02-27T22:45:52.418Z,10.90
2019-02-27T22:48:21.785Z,10.80
2019-02-27T22:50:51.142Z,10.80
2019-02-27T22:53:20.553Z,10.80
2019-02-27T22:55:49.865Z,10.80
2019-02-27T22:58:19.842Z,10.60
2019-02-27T23:01:01.883Z,10.70
2019-02-27T23:03:36.063Z,10.60
2019-02-27T23:06:06.183Z,10.60
2019-02-27T23:08:37.218Z,10.60
2019-02-27T23:11:07.183Z,10.50
2019-02-27T23:13:36.944Z,10.50
2019-02-27T23:16:06.725Z,10.40
2019-02-27T23:18:37.365Z,10.30
2019-02-27T23:21:07.608Z,10.10
2019-02-27T23:23:37.489Z,10.00
2019-02-27T23:26:07.443Z,10.00
2019-02-27T23:28:36.838Z,10.00
2019-02-27T23:31:06.142Z,10.10
2019-02-27T23:33:36.677Z,10.10
2019-02-27T23:36:06.678Z,10.10
2019-02-27T23:38:35.976Z,10.10
2019-02-27T23:41:05.489Z,10.10
2019-02-27T23:43:35.087Z,10.10
2019-02-27T23:46:05.570Z,10.00
2019-02-27T23:48:36.221Z,10.00
2019-02-27T23:51:06.259Z,9.90
2019-02-27T23:53:35.573Z,9.80
2019-02-27T23:56:05.762Z,9.80
2019-02-27T23:58:35.087Z,9.80
